Mt Hood
Mt. Hood Meadows Ski Area
Latest observation 09/01 16:00 PDT
| Time (PDT) | Temp °F 6540' | Temp °F 5380' | RH % 6540' | RH % 5380' | Min 6540' | Spd 6540' | Gust 6540' | Dir 6540' | Pcp1 in 5380' | PcpSum in 5380' | 24Sno in 5380' | SnoHt in 5380' | Pres millibar 5380' |
|---|---|---|---|---|---|---|---|---|---|---|---|---|---|
| 09/01 16:00 | – | 57 | – | 48 | – | – | – | – | 0.00 | 0.00 | -149.7 | 9.6 | 1013 |
| 09/01 15:00 | – | 57 | – | 49 | – | – | – | – | 0.00 | 0.00 | -149.7 | 10.2 | 1013 |
| 09/01 14:00 | – | 60 | – | 46 | – | – | – | – | 0.00 | 0.00 | -148.5 | 10.2 | 1013 |
| 09/01 13:00 | – | 61 | – | 31 | – | – | – | – | 0.00 | 0.00 | -148.7 | 11.5 | 1013 |
| 09/01 12:00 | – | 59 | – | 42 | – | – | – | – | 0.00 | 0.00 | -150.7 | 2.3 | 1014 |
| 09/01 11:00 | – | 58 | – | 51 | – | – | – | – | 0.00 | 0.00 | -150.1 | 9.8 | 1013 |
| 09/01 10:00 | – | 55 | – | 54 | – | – | – | – | 0.00 | 0.00 | -150.8 | 10.7 | 1013 |
| 09/01 09:00 | – | 56 | – | 49 | – | – | – | – | 0.00 | 0.00 | -150.6 | 13.2 | 1013 |
| 09/01 08:00 | – | 52 | – | 41 | – | – | – | – | 0.00 | 0.00 | -150.0 | 13.4 | 1013 |
| 09/01 07:00 | – | 50 | – | 40 | – | – | – | – | 0.00 | 0.00 | -151.3 | 13.6 | 1013 |
| 09/01 06:00 | – | 51 | – | 35 | – | – | – | – | 0.00 | 0.00 | -149.7 | 13.7 | 1012 |
| 09/01 05:00 | – | 52 | – | 33 | – | – | – | – | 0.00 | 0.00 | -150.8 | 13.9 | 1012 |
| 09/01 04:00 | – | 52 | – | 32 | – | – | – | – | 0.00 | 0.00 | -149.9 | 13.8 | 1013 |
| 09/01 03:00 | – | 52 | – | 32 | – | – | – | – | 0.00 | 0.00 | -149.5 | 13.3 | 1013 |
| 09/01 02:00 | – | 52 | – | 37 | – | – | – | – | 0.00 | 0.00 | -150.9 | 13.3 | 1014 |
| 09/01 01:00 | – | 53 | – | 38 | – | – | – | – | 0.00 | 0.00 | -150.5 | 13.0 | 1014 |
| 09/01 00:00 | – | 52 | – | 45 | – | – | – | – | 0.00 | 0.00 | -151.5 | 12.9 | 1014 |
| 08/31 23:00 | – | 53 | – | 51 | – | – | – | – | 0.00 | 0.00 | -150.6 | 12.1 | 1014 |
| 08/31 22:00 | – | 53 | – | 50 | – | – | – | – | 0.00 | 0.00 | -150.7 | 11.8 | 1015 |
| 08/31 21:00 | – | 54 | – | 50 | – | – | – | – | 0.00 | 0.00 | -150.7 | 11.7 | 1015 |
| 08/31 20:00 | – | 57 | – | 47 | – | – | – | – | 0.00 | 0.00 | -150.7 | 10.5 | 1015 |
| 08/31 19:00 | – | 60 | – | 41 | – | – | – | – | 0.00 | 0.00 | -150.6 | 10.9 | 1015 |
| 08/31 18:00 | – | 66 | – | 30 | – | – | – | – | 0.00 | 0.00 | -148.7 | 12.1 | 1015 |
| 08/31 17:00 | – | 67 | – | 27 | – | – | – | – | 0.00 | 0.00 | -147.0 | 12.0 | 1015 |

